»·PEaware :: N50212 KBFL-KSNA

N50212 :: KBFL-KSNA

FLIGHT INFORMATION

Flight Status: Arrived
Operator: Privately registered:
United States
More flights under this callsign
Pilot: Brad H. (9994)
Aircraft: PIPER PA-34 SENECA
(PA34)
More flights by this aircraft type
Origin: KBFL Meadows
United States
Destination: KSNA John Wayne-Orange Co
United States
More flights between these airports :: More routes between these airports
Route: +MEADO3 LHS V459 SLI
File this flight plan on PilotEdge
Remarks:
Altitude:
(Current/Filed)
11,000ft
Speed:
(Current/Filed)
140kts
Departed: 04-Jan-18 08:19 AM
Arrived: 04-Jan-18 09:15 AM
Distance/Time
Traveled:
121nm/0:56
Distance/Time
To Go:
Arrived

Flight Plot

Page will automatically refresh every two minutes.

Flight plan parsing failed; only flown route is shown


Map Options




Map Legend


Flown Route
Filed Route
Departure Airport
Arrival Airport
Navaid (VOR, NDB)
Fix

Horizontal Profiles

Position Reports

Time Latitude Longitude Heading Altitude Ground
Speed
04-Jan-18 07:57 35.432120 -119.049646 38 490ft 0kts
04-Jan-18 07:58 35.432120 -119.049646 38 490ft 0kts
04-Jan-18 07:59 35.432120 -119.049646 38 490ft 0kts
04-Jan-18 08:00 35.432120 -119.049646 38 490ft 0kts
04-Jan-18 08:01 35.432120 -119.049646 38 490ft 0kts
04-Jan-18 08:02 35.432120 -119.049646 38 490ft 0kts
04-Jan-18 08:03 35.432120 -119.049646 38 490ft 0kts
04-Jan-18 08:04 35.429359 -119.046119 226 491ft 0kts
04-Jan-18 08:05 35.429359 -119.046119 226 491ft 0kts
04-Jan-18 08:06 35.429359 -119.046119 226 491ft 0kts
04-Jan-18 08:07 35.429359 -119.046119 226 491ft 0kts
04-Jan-18 08:08 35.429359 -119.046119 226 491ft 0kts
04-Jan-18 08:09 35.429359 -119.046119 226 491ft 0kts
04-Jan-18 08:10 35.429359 -119.046119 226 491ft 0kts
04-Jan-18 08:11 35.429359 -119.046119 226 491ft 0kts
04-Jan-18 08:12 35.429359 -119.046119 226 491ft 0kts
04-Jan-18 08:13 35.429359 -119.046119 226 491ft 0kts
04-Jan-18 08:14 35.429359 -119.046119 226 491ft 0kts
04-Jan-18 08:15 35.429359 -119.046119 226 491ft 0kts
04-Jan-18 08:16 35.429359 -119.046119 226 491ft 0kts
04-Jan-18 08:17 35.429337 -119.046146 223 491ft 3kts
04-Jan-18 08:18 35.429026 -119.046190 174 488ft 0kts
04-Jan-18 08:19 35.428997 -119.046186 171 488ft 2kts
04-Jan-18 08:20 35.426257 -119.044809 134 477ft 14kts
04-Jan-18 08:21 35.424003 -119.043548 197 470ft 6kts
04-Jan-18 08:22 35.425633 -119.043585 291 477ft 7kts
04-Jan-18 08:23 35.425544 -119.044780 260 473ft 0kts
04-Jan-18 08:24 35.425544 -119.044780 260 473ft 0kts
04-Jan-18 08:25 35.431453 -119.053123 316 604ft 101kts
04-Jan-18 08:26 35.452674 -119.077642 313 2083ft 105kts
04-Jan-18 08:27 35.472059 -119.103752 289 3462ft 107kts
04-Jan-18 08:28 35.449944 -119.116494 172 4647ft 116kts
04-Jan-18 08:29 35.418375 -119.106839 149 5485ft 125kts
04-Jan-18 08:30 35.389930 -119.083336 153 6243ft 129kts
04-Jan-18 08:31 35.360075 -119.061055 154 6948ft 126kts
04-Jan-18 08:32 35.330061 -119.038944 156 7631ft 125kts
04-Jan-18 08:33 35.300138 -119.017034 156 8284ft 125kts
04-Jan-18 08:34 35.270048 -118.995097 156 8914ft 126kts
04-Jan-18 08:35 35.239785 -118.973076 156 9549ft 127kts
04-Jan-18 08:36 35.209377 -118.950996 157 10173ft 128kts
04-Jan-18 08:37 35.178566 -118.928691 157 10756ft 130kts
04-Jan-18 08:38 35.146593 -118.905743 156 11012ft 144kts
04-Jan-18 08:39 35.110070 -118.879901 156 10974ft 157kts
04-Jan-18 08:40 35.071770 -118.852589 155 10938ft 161kts
04-Jan-18 08:41 35.032644 -118.824716 155 10896ft 163kts
04-Jan-18 08:42 34.993423 -118.796792 154 10878ft 163kts
04-Jan-18 08:43 34.954109 -118.768692 154 10781ft 165kts
04-Jan-18 08:44 34.914966 -118.740678 154 10776ft 162kts
04-Jan-18 08:45 34.876405 -118.713101 153 10777ft 160kts
04-Jan-18 08:46 34.838400 -118.685894 153 10799ft 158kts
04-Jan-18 08:47 34.800608 -118.658843 154 10835ft 157kts
04-Jan-18 08:48 34.763151 -118.632057 154 10881ft 156kts
04-Jan-18 08:49 34.725759 -118.605178 154 10947ft 157kts
04-Jan-18 08:50 34.687613 -118.577973 154 10982ft 160kts
04-Jan-18 08:51 34.649668 -118.555256 159 10991ft 160kts
04-Jan-18 08:52 34.609313 -118.531624 159 10984ft 161kts
04-Jan-18 08:53 34.569247 -118.508116 159 11034ft 160kts
04-Jan-18 08:54 34.529114 -118.484635 159 11033ft 161kts
04-Jan-18 08:55 34.488780 -118.461061 159 11031ft 161kts
04-Jan-18 08:56 34.448610 -118.437608 159 11027ft 161kts
04-Jan-18 08:57 34.408176 -118.414025 159 11022ft 162kts
04-Jan-18 08:58 34.367646 -118.390407 159 11018ft 161kts
04-Jan-18 08:59 34.327122 -118.366815 159 11018ft 161kts
04-Jan-18 09:00 34.286020 -118.343026 159 10649ft 168kts
04-Jan-18 09:01 34.243508 -118.318558 158 10055ft 170kts
04-Jan-18 09:02 34.200883 -118.294041 158 9458ft 169kts
04-Jan-18 09:03 34.158588 -118.269732 157 8859ft 168kts
04-Jan-18 09:04 34.116595 -118.245638 156 8242ft 169kts
04-Jan-18 09:05 34.074357 -118.221476 156 7444ft 168kts
04-Jan-18 09:06 34.032865 -118.197703 155 7020ft 159kts
04-Jan-18 09:07 33.993290 -118.174869 155 7022ft 157kts
04-Jan-18 09:08 33.953770 -118.152086 155 7023ft 157kts
04-Jan-18 09:09 33.914387 -118.129407 155 7008ft 158kts
04-Jan-18 09:10 33.873933 -118.106259 155 6511ft 161kts
04-Jan-18 09:11 33.852593 -118.065071 73 5812ft 159kts
04-Jan-18 09:12 33.865681 -118.015607 70 5233ft 153kts
04-Jan-18 09:13 33.855231 -117.967008 115 4528ft 159kts
04-Jan-18 09:14 33.838180 -117.919855 121 3772ft 152kts
04-Jan-18 09:15 33.818381 -117.878440 122 3149ft 139kts
04-Jan-18 09:16 33.788066 -117.864248 190 2932ft 127kts
04-Jan-18 09:17 33.753045 -117.859172 167 2791ft 119kts
04-Jan-18 09:18 33.723826 -117.847703 157 1482ft 100kts
04-Jan-18 09:19 33.698757 -117.852096 211 466ft 100kts
04-Jan-18 09:20 33.676953 -117.866202 207 44ft 56kts
04-Jan-18 09:21 33.672696 -117.866956 208 47ft 0kts

Navigation Log

Ident Type
Flight plan parsing failed, navigation log unavailable